createdAt,value
2023-06-17T00:00:31.192Z,185.74
2023-06-17T00:01:31.242Z,188.07
2023-06-17T00:02:32.342Z,184.56
2023-06-17T00:03:32.484Z,188.77
2023-06-17T00:04:32.418Z,185.20
2023-06-17T00:05:32.473Z,186.67
2023-06-17T00:06:32.496Z,186.82
2023-06-17T00:07:32.552Z,185.82
2023-06-17T00:08:32.595Z,188.25
2023-06-17T00:09:32.639Z,186.27
2023-06-17T00:10:32.737Z,186.92
2023-06-17T00:11:32.732Z,188.13
2023-06-17T00:12:32.769Z,186.12
2023-06-17T00:13:32.813Z,184.12
2023-06-17T00:14:31.880Z,185.75
2023-06-17T00:15:32.934Z,187.02
2023-06-17T00:16:32.973Z,181.86
2023-06-17T00:17:33.062Z,186.26
2023-06-17T00:18:33.064Z,184.33
2023-06-17T00:19:33.122Z,185.89
2023-06-17T00:20:32.164Z,185.07
2023-06-17T00:21:33.240Z,184.65
2023-06-17T00:22:33.284Z,186.52
2023-06-17T00:23:32.357Z,180.78
2023-06-17T00:24:33.423Z,184.30
2023-06-17T00:25:33.441Z,184.32
2023-06-17T00:26:33.524Z,181.92
2023-06-17T00:27:33.553Z,188.12
2023-06-17T00:28:33.643Z,185.20
2023-06-17T00:29:32.664Z,183.10
2023-06-17T00:30:32.728Z,182.30
2023-06-17T00:31:33.774Z,181.93
2023-06-17T00:32:33.922Z,184.13
2023-06-17T00:33:33.907Z,180.48
2023-06-17T00:34:34.018Z,187.21
2023-06-17T00:35:34.022Z,181.36
2023-06-17T00:36:34.083Z,185.85
2023-06-17T00:37:34.131Z,182.01
2023-06-17T00:38:34.199Z,184.92
2023-06-17T00:39:34.249Z,184.98
2023-06-17T00:40:34.310Z,183.10
2023-06-17T00:41:34.342Z,179.57
2023-06-17T00:42:34.447Z,186.06
2023-06-17T00:43:34.474Z,180.17
2023-06-17T00:44:34.524Z,185.11
2023-06-17T00:45:34.606Z,184.98
2023-06-17T00:46:34.659Z,184.19
2023-06-17T00:47:34.867Z,182.00
2023-06-17T00:48:34.772Z,182.43
2023-06-17T00:49:34.813Z,180.68
2023-06-17T00:50:34.872Z,182.17
2023-06-17T00:51:34.935Z,185.41
2023-06-17T00:52:41.893Z,183.95
2023-06-17T00:53:34.993Z,184.08
2023-06-17T00:54:34.988Z,184.66
2023-06-17T00:55:34.985Z,185.18
2023-06-17T00:56:34.963Z,185.63
2023-06-17T00:57:34.973Z,185.53
2023-06-17T00:58:33.980Z,183.65
2023-06-17T00:59:34.965Z,184.25
2023-06-17T01:00:34.953Z,183.21
2023-06-17T01:01:34.942Z,182.61
2023-06-17T01:02:34.996Z,183.83
2023-06-17T01:03:35.045Z,183.23
2023-06-17T01:04:34.927Z,182.58
2023-06-17T01:05:34.929Z,183.53
2023-06-17T01:06:34.932Z,184.35
2023-06-17T01:07:34.931Z,180.04
2023-06-17T01:08:34.884Z,182.61
2023-06-17T01:09:34.888Z,182.80
2023-06-17T01:10:34.879Z,180.83
2023-06-17T01:11:34.864Z,182.82
2023-06-17T01:12:34.863Z,179.17
2023-06-17T01:13:34.858Z,182.51
2023-06-17T01:14:34.894Z,182.66
2023-06-17T01:15:34.835Z,179.37
2023-06-17T01:16:34.977Z,182.63
2023-06-17T01:17:33.988Z,179.90
2023-06-17T01:18:35.004Z,183.00
2023-06-17T01:19:35.058Z,181.37
2023-06-17T01:20:34.161Z,182.28
2023-06-17T01:21:35.187Z,182.51
2023-06-17T01:22:35.240Z,180.45
2023-06-17T01:23:35.300Z,179.64
2023-06-17T01:24:35.423Z,182.31
2023-06-17T01:25:35.457Z,180.98
2023-06-17T01:26:35.496Z,179.24
2023-06-17T01:27:35.586Z,181.50
2023-06-17T01:28:35.587Z,180.77
2023-06-17T01:29:35.630Z,180.31
2023-06-17T01:30:35.711Z,182.41
2023-06-17T01:31:35.767Z,180.54
2023-06-17T01:32:35.799Z,182.24
2023-06-17T01:33:34.792Z,179.56
2023-06-17T01:34:35.812Z,179.52
2023-06-17T01:35:35.872Z,181.88
2023-06-17T01:36:35.881Z,177.95
2023-06-17T01:37:34.940Z,181.15
2023-06-17T01:38:35.973Z,182.95
2023-06-17T01:39:36.056Z,179.44
2023-06-17T01:40:36.099Z,180.17
2023-06-17T01:41:35.164Z,179.53
2023-06-17T01:42:36.240Z,179.16
2023-06-17T01:43:36.298Z,180.60
2023-06-17T01:44:36.337Z,179.76
2023-06-17T01:45:36.406Z,181.60
2023-06-17T01:46:36.510Z,181.31
2023-06-17T01:47:36.544Z,180.45
2023-06-17T01:48:35.627Z,174.83
2023-06-17T01:49:36.653Z,178.26
2023-06-17T01:50:36.698Z,180.77
2023-06-17T01:51:35.727Z,178.83
2023-06-17T01:52:36.758Z,179.85
2023-06-17T01:53:36.789Z,180.10
2023-06-17T01:54:36.844Z,180.11
2023-06-17T01:55:36.876Z,176.68
2023-06-17T01:56:36.917Z,180.17
2023-06-17T01:57:36.952Z,178.70
2023-06-17T01:58:37.038Z,179.60
2023-06-17T01:59:37.125Z,177.12
2023-06-17T02:00:36.150Z,179.28
2023-06-17T02:01:37.225Z,178.97
2023-06-17T02:02:37.340Z,178.39
2023-06-17T02:03:36.417Z,176.86
2023-06-17T02:04:37.384Z,179.39
2023-06-17T02:05:37.465Z,178.60
2023-06-17T02:06:37.516Z,178.14
2023-06-17T02:07:37.583Z,176.46
2023-06-17T02:08:37.626Z,178.52
2023-06-17T02:09:37.696Z,178.12
2023-06-17T02:10:37.741Z,177.89
2023-06-17T02:11:37.786Z,176.77
2023-06-17T02:12:37.850Z,174.58
2023-06-17T02:13:37.970Z,176.44
2023-06-17T02:14:37.938Z,177.31
2023-06-17T02:15:37.018Z,176.14
2023-06-17T02:16:38.166Z,177.38
2023-06-17T02:17:38.218Z,178.34
2023-06-17T02:18:38.186Z,178.39
2023-06-17T02:19:38.209Z,177.39
2023-06-17T02:20:37.274Z,177.11
2023-06-17T02:21:38.337Z,179.56
2023-06-17T02:22:38.362Z,177.88
2023-06-17T02:23:38.406Z,177.00
2023-06-17T02:24:38.461Z,176.58
2023-06-17T02:25:37.487Z,176.85
2023-06-17T02:26:37.501Z,177.12
2023-06-17T02:27:38.503Z,176.30
2023-06-17T02:28:38.548Z,174.99
2023-06-17T02:29:37.545Z,174.68
2023-06-17T02:30:37.606Z,174.50
2023-06-17T02:31:38.743Z,175.59
2023-06-17T02:32:38.768Z,174.53
2023-06-17T02:33:38.782Z,175.12
2023-06-17T02:34:38.862Z,174.76
2023-06-17T02:35:38.901Z,176.83
2023-06-17T02:36:38.969Z,176.49
2023-06-17T02:37:39.026Z,176.39
2023-06-17T02:38:39.093Z,172.85
2023-06-17T02:39:39.149Z,175.74
2023-06-17T02:40:39.213Z,173.11
2023-06-17T02:41:39.262Z,176.23
2023-06-17T02:42:38.324Z,175.81
2023-06-17T02:43:39.406Z,175.69
2023-06-17T02:44:39.459Z,175.08
2023-06-17T02:45:38.500Z,175.00
2023-06-17T02:46:39.614Z,174.04
2023-06-17T02:47:39.693Z,171.95
2023-06-17T02:48:39.692Z,174.85
2023-06-17T02:49:39.800Z,174.32
2023-06-17T02:50:38.825Z,175.51
2023-06-17T02:51:39.819Z,175.19
2023-06-17T02:52:39.857Z,171.07
2023-06-17T02:53:39.907Z,172.79
2023-06-17T02:54:39.955Z,174.99
2023-06-17T02:55:39.988Z,173.82
2023-06-17T02:56:40.066Z,174.41
2023-06-17T02:57:40.101Z,173.60
2023-06-17T02:58:39.116Z,173.96
2023-06-17T02:59:39.124Z,171.11
2023-06-17T03:00:40.221Z,172.75
2023-06-17T03:01:40.191Z,173.05
2023-06-17T03:02:40.326Z,171.79
2023-06-17T03:03:40.243Z,173.30
2023-06-17T03:04:39.288Z,173.00
2023-06-17T03:05:40.338Z,173.32
2023-06-17T03:06:40.393Z,172.37
2023-06-17T03:07:40.394Z,172.79
2023-06-17T03:08:40.438Z,171.42
2023-06-17T03:09:40.452Z,172.77
2023-06-17T03:10:40.469Z,172.97
2023-06-17T03:11:40.472Z,172.18
2023-06-17T03:12:40.474Z,170.78
2023-06-17T03:13:40.469Z,172.04
2023-06-17T03:14:40.503Z,171.11
2023-06-17T03:15:39.490Z,171.73
2023-06-17T03:16:40.484Z,171.40
2023-06-17T03:17:39.545Z,166.80
2023-06-17T03:18:39.500Z,171.56
2023-06-17T03:19:40.525Z,171.70
2023-06-17T03:20:40.525Z,172.00
2023-06-17T03:21:41.517Z,171.65
2023-06-17T03:22:40.573Z,172.27
2023-06-17T03:23:40.575Z,171.58
2023-06-17T03:24:40.624Z,170.30
2023-06-17T03:25:40.609Z,172.19
2023-06-17T03:26:39.676Z,171.52
2023-06-17T03:27:40.668Z,170.86
2023-06-17T03:28:39.671Z,171.36
2023-06-17T03:29:40.681Z,171.28
2023-06-17T03:30:40.738Z,170.24
2023-06-17T03:31:39.708Z,171.03
2023-06-17T03:32:40.755Z,169.51
2023-06-17T03:33:40.756Z,171.38
2023-06-17T03:34:40.754Z,170.07
2023-06-17T03:35:40.769Z,169.85
2023-06-17T03:36:40.771Z,170.39
2023-06-17T03:37:40.801Z,170.48
2023-06-17T03:38:40.830Z,169.16
2023-06-17T03:39:40.871Z,170.17
2023-06-17T03:40:40.880Z,171.01
2023-06-17T03:41:40.881Z,169.30
2023-06-17T03:42:40.932Z,169.99
2023-06-17T03:43:40.941Z,169.91
2023-06-17T03:44:40.969Z,169.77
2023-06-17T03:45:40.978Z,170.17
2023-06-17T03:46:40.958Z,169.66
2023-06-17T03:47:40.978Z,169.01
2023-06-17T03:48:40.946Z,168.93
2023-06-17T03:49:40.965Z,169.01
2023-06-17T03:50:39.938Z,167.90
2023-06-17T03:51:39.940Z,167.96
2023-06-17T03:52:40.958Z,169.74
2023-06-17T03:53:41.041Z,168.30
2023-06-17T03:54:40.970Z,167.82
2023-06-17T03:55:41.003Z,168.40
2023-06-17T03:56:40.939Z,166.02
2023-06-17T03:57:40.974Z,167.86
2023-06-17T03:58:40.945Z,168.22
2023-06-17T03:59:40.980Z,167.66
2023-06-17T04:00:40.947Z,166.90
2023-06-17T04:01:39.985Z,166.80
2023-06-17T04:02:41.077Z,165.57
2023-06-17T04:03:41.045Z,167.56
2023-06-17T04:04:41.126Z,167.07
2023-06-17T04:05:40.936Z,166.99
2023-06-17T04:06:40.968Z,166.75
2023-06-17T04:07:40.957Z,166.32
2023-06-17T04:08:39.952Z,166.15
2023-06-17T04:09:43.842Z,167.26
2023-06-17T04:10:40.972Z,167.47
2023-06-17T04:11:40.936Z,167.95
2023-06-17T04:12:39.950Z,168.04
2023-06-17T04:13:40.926Z,167.49
2023-06-17T04:14:40.908Z,167.43
2023-06-17T04:15:40.905Z,165.51
2023-06-17T04:16:40.899Z,168.88
2023-06-17T04:17:40.925Z,166.86
2023-06-17T04:18:40.901Z,167.27
2023-06-17T04:19:40.907Z,166.25
2023-06-17T04:20:40.877Z,167.20
2023-06-17T04:21:40.858Z,166.80
2023-06-17T04:22:40.859Z,165.69
2023-06-17T04:23:40.869Z,166.33
2023-06-17T04:24:40.929Z,165.57
2023-06-17T04:25:40.864Z,165.92
2023-06-17T04:26:40.870Z,166.61
2023-06-17T04:27:40.841Z,166.13
2023-06-17T04:28:40.819Z,166.61
2023-06-17T04:29:40.829Z,167.96
2023-06-17T04:30:40.809Z,166.58
2023-06-17T04:31:40.894Z,165.36
2023-06-17T04:32:40.922Z,165.63
2023-06-17T04:33:40.794Z,165.03
2023-06-17T04:34:40.790Z,164.17
2023-06-17T04:35:40.783Z,165.97
2023-06-17T04:36:40.766Z,164.79
2023-06-17T04:37:40.785Z,166.05
2023-06-17T04:38:39.989Z,165.22
2023-06-17T04:39:40.762Z,164.47
2023-06-17T04:40:40.757Z,165.01
2023-06-17T04:41:39.738Z,164.39
2023-06-17T04:42:40.753Z,164.35
2023-06-17T04:43:40.737Z,163.50
2023-06-17T04:44:40.712Z,163.50
2023-06-17T04:45:40.718Z,163.34
2023-06-17T04:46:40.740Z,164.66
2023-06-17T04:47:39.773Z,163.05
2023-06-17T04:48:40.691Z,163.87
2023-06-17T04:49:39.688Z,164.88
2023-06-17T04:50:40.679Z,163.14
2023-06-17T04:51:40.675Z,163.81
2023-06-17T04:52:40.665Z,163.28
2023-06-17T04:53:39.653Z,163.25
2023-06-17T04:54:40.648Z,162.38
2023-06-17T04:55:39.636Z,164.30
2023-06-17T04:56:40.629Z,162.53
2023-06-17T04:57:40.633Z,163.60
2023-06-17T04:58:40.645Z,163.47
2023-06-17T04:59:40.616Z,161.31
2023-06-17T05:00:39.673Z,164.35
2023-06-17T05:01:40.601Z,164.97
2023-06-17T05:02:40.662Z,163.85
2023-06-17T05:03:40.670Z,164.75
2023-06-17T05:04:40.583Z,161.51
2023-06-17T05:05:40.575Z,162.12
2023-06-17T05:06:40.574Z,163.59
2023-06-17T05:07:40.564Z,163.10
2023-06-17T05:08:40.547Z,163.65
2023-06-17T05:09:40.548Z,162.75
2023-06-17T05:10:40.558Z,163.81
2023-06-17T05:11:39.543Z,161.08
2023-06-17T05:12:40.528Z,159.78
2023-06-17T05:13:40.517Z,161.93
2023-06-17T05:14:40.538Z,162.75
2023-06-17T05:15:40.500Z,162.30
2023-06-17T05:16:40.554Z,160.52
2023-06-17T05:17:41.448Z,162.82
2023-06-17T05:18:40.518Z,162.88
2023-06-17T05:19:40.487Z,163.08
2023-06-17T05:20:40.475Z,163.39
2023-06-17T05:21:40.464Z,162.02
2023-06-17T05:22:40.482Z,161.79
2023-06-17T05:23:40.456Z,161.77
2023-06-17T05:24:40.588Z,162.36
2023-06-17T05:25:39.454Z,161.75
2023-06-17T05:26:40.457Z,161.94
2023-06-17T05:27:40.451Z,161.98
2023-06-17T05:28:39.449Z,162.26
2023-06-17T05:29:40.627Z,162.36
2023-06-17T05:30:40.484Z,161.63
2023-06-17T05:31:40.401Z,161.84
2023-06-17T05:32:40.490Z,159.82
2023-06-17T05:33:40.422Z,161.76
2023-06-17T05:34:40.404Z,159.76
2023-06-17T05:35:40.385Z,162.43
2023-06-17T05:36:40.376Z,161.59
2023-06-17T05:37:40.381Z,160.59
2023-06-17T05:38:40.361Z,160.55
2023-06-17T05:39:40.361Z,161.49
2023-06-17T05:40:40.350Z,160.17
2023-06-17T05:41:39.333Z,163.13
2023-06-17T05:42:39.338Z,160.63
2023-06-17T05:43:39.347Z,162.10
2023-06-17T05:44:39.347Z,159.94
2023-06-17T05:45:40.327Z,160.95
2023-06-17T05:46:40.371Z,160.87
2023-06-17T05:47:39.337Z,161.37
2023-06-17T05:48:40.298Z,160.41
2023-06-17T05:49:40.326Z,161.38
2023-06-17T05:50:40.279Z,162.31
2023-06-17T05:51:40.287Z,160.61
2023-06-17T05:52:40.282Z,159.17
2023-06-17T05:53:39.271Z,161.04
2023-06-17T05:54:40.269Z,160.92
2023-06-17T05:55:40.262Z,160.01
2023-06-17T05:56:39.255Z,161.39
2023-06-17T05:57:39.236Z,160.49
2023-06-17T05:58:40.238Z,161.01
2023-06-17T05:59:39.214Z,159.84
2023-06-17T06:00:39.234Z,161.13
2023-06-17T06:01:39.310Z,160.46
2023-06-17T06:02:40.373Z,160.75
2023-06-17T06:03:40.340Z,159.78
2023-06-17T06:04:40.355Z,160.94
2023-06-17T06:05:40.388Z,157.21
2023-06-17T06:06:40.435Z,161.96
2023-06-17T06:07:40.450Z,159.37
2023-06-17T06:08:40.489Z,160.48
2023-06-17T06:09:40.498Z,158.84
2023-06-17T06:10:40.544Z,159.30
2023-06-17T06:11:40.566Z,160.68
2023-06-17T06:12:40.602Z,159.73
2023-06-17T06:13:40.679Z,160.31
2023-06-17T06:14:39.704Z,158.71
2023-06-17T06:15:40.759Z,159.55
2023-06-17T06:16:40.855Z,160.16
2023-06-17T06:17:40.875Z,159.92
2023-06-17T06:18:40.966Z,160.33
2023-06-17T06:19:40.981Z,155.95
2023-06-17T06:20:41.039Z,158.38
2023-06-17T06:21:41.113Z,158.55
2023-06-17T06:22:41.160Z,158.12
2023-06-17T06:23:41.258Z,160.13
2023-06-17T06:24:41.406Z,158.81
2023-06-17T06:25:41.380Z,159.43
2023-06-17T06:26:41.427Z,157.93
2023-06-17T06:27:40.472Z,158.73
2023-06-17T06:28:41.588Z,157.83
2023-06-17T06:29:41.594Z,160.40
2023-06-17T06:30:41.642Z,159.50
2023-06-17T06:31:41.719Z,155.76
2023-06-17T06:32:40.815Z,157.33
2023-06-17T06:33:41.834Z,158.96
2023-06-17T06:34:41.908Z,157.42
2023-06-17T06:35:41.953Z,157.24
2023-06-17T06:36:40.996Z,157.76
2023-06-17T06:37:42.064Z,158.50
2023-06-17T06:38:41.119Z,158.67
2023-06-17T06:39:42.183Z,158.87
2023-06-17T06:40:42.204Z,159.40
2023-06-17T06:41:42.283Z,157.47
2023-06-17T06:42:42.327Z,154.86
2023-06-17T06:43:41.432Z,158.77
2023-06-17T06:44:42.442Z,159.53
2023-06-17T06:45:42.559Z,155.51
2023-06-17T06:46:41.562Z,153.95
2023-06-17T06:47:42.654Z,158.63
2023-06-17T06:48:42.655Z,153.07
2023-06-17T06:49:42.713Z,156.00
2023-06-17T06:50:42.794Z,158.25
2023-06-17T06:51:42.830Z,158.40
2023-06-17T06:52:41.882Z,154.78
2023-06-17T06:53:42.934Z,159.56
2023-06-17T06:54:43.008Z,155.99
2023-06-17T06:55:43.035Z,157.07
2023-06-17T06:56:43.106Z,152.26
2023-06-17T06:57:43.145Z,158.86
2023-06-17T06:58:43.227Z,150.66
2023-06-17T06:59:43.267Z,154.96
2023-06-17T07:00:43.311Z,160.36
2023-06-17T07:01:43.397Z,158.62
2023-06-17T07:02:43.489Z,156.06
2023-06-17T07:03:43.495Z,153.70
2023-06-17T07:04:43.608Z,156.70
2023-06-17T07:05:42.584Z,153.80
2023-06-17T07:06:43.673Z,157.73
2023-06-17T07:07:43.706Z,159.06
2023-06-17T07:08:43.758Z,157.14
2023-06-17T07:09:43.810Z,155.98
2023-06-17T07:10:43.854Z,157.47
2023-06-17T07:11:43.903Z,154.84
2023-06-17T07:12:42.960Z,157.47
2023-06-17T07:13:44.020Z,159.07
2023-06-17T07:14:44.057Z,150.37
2023-06-17T07:15:44.095Z,157.22
2023-06-17T07:16:43.208Z,156.81
2023-06-17T07:17:44.231Z,152.20
2023-06-17T07:18:44.290Z,153.18
2023-06-17T07:19:44.325Z,154.78
2023-06-17T07:20:44.402Z,153.08
2023-06-17T07:21:44.417Z,154.63
2023-06-17T07:22:44.534Z,161.20
2023-06-17T07:23:44.526Z,159.41
2023-06-17T07:24:44.597Z,160.19
2023-06-17T07:25:44.642Z,156.85
2023-06-17T07:26:44.703Z,157.26
2023-06-17T07:27:43.753Z,155.42
2023-06-17T07:28:43.829Z,155.36
2023-06-17T07:29:44.861Z,152.36
2023-06-17T07:30:43.964Z,157.77
2023-06-17T07:31:45.006Z,157.44
2023-06-17T07:32:45.061Z,155.50
2023-06-17T07:33:45.076Z,157.48
2023-06-17T07:34:45.112Z,156.57
2023-06-17T07:35:45.150Z,157.86
2023-06-17T07:36:45.225Z,154.65
2023-06-17T07:37:45.246Z,154.78
2023-06-17T07:38:44.673Z,151.88
2023-06-17T07:39:44.359Z,151.02
2023-06-17T07:40:44.420Z,156.80
2023-06-17T07:41:44.474Z,158.55
2023-06-17T07:42:45.538Z,154.49
2023-06-17T07:43:45.576Z,153.31
2023-06-17T07:44:45.605Z,151.43
2023-06-17T07:45:44.727Z,149.39
2023-06-17T07:46:45.783Z,155.54
2023-06-17T07:47:45.754Z,155.06
2023-06-17T07:48:45.789Z,152.14
2023-06-17T07:49:44.821Z,152.43
2023-06-17T07:50:45.841Z,154.70
2023-06-17T07:51:45.879Z,152.11
2023-06-17T07:52:45.953Z,156.27
2023-06-17T07:53:45.978Z,149.75
2023-06-17T07:54:45.061Z,148.88
2023-06-17T07:55:46.049Z,150.04
2023-06-17T07:56:45.071Z,152.15
2023-06-17T07:57:46.139Z,151.00
2023-06-17T07:58:45.214Z,153.05
2023-06-17T07:59:45.203Z,154.32
2023-06-17T08:00:46.231Z,152.19
2023-06-17T08:01:46.363Z,152.37
2023-06-17T08:02:46.398Z,154.77
2023-06-17T08:03:46.436Z,152.12
2023-06-17T08:04:46.402Z,150.36
2023-06-17T08:05:46.418Z,150.99
2023-06-17T08:06:46.442Z,149.20
2023-06-17T08:07:46.483Z,157.30
2023-06-17T08:08:46.549Z,152.09
2023-06-17T08:09:45.539Z,144.52
2023-06-17T08:10:46.611Z,154.45
2023-06-17T08:11:46.616Z,144.43
2023-06-17T08:12:46.667Z,147.25
2023-06-17T08:13:46.748Z,150.86
2023-06-17T08:14:46.745Z,148.64
2023-06-17T08:15:45.790Z,154.16
2023-06-17T08:16:46.919Z,153.68
2023-06-17T08:17:46.926Z,149.13
2023-06-17T08:18:46.887Z,147.48
2023-06-17T08:19:46.929Z,148.33
2023-06-17T08:20:46.966Z,150.05
2023-06-17T08:21:47.020Z,150.82
2023-06-17T08:22:46.046Z,150.88
2023-06-17T08:23:47.098Z,146.08
2023-06-17T08:24:47.114Z,148.01
2023-06-17T08:25:47.198Z,150.76
2023-06-17T08:26:47.237Z,148.58
2023-06-17T08:27:47.222Z,150.74
2023-06-17T08:28:46.284Z,150.14
2023-06-17T08:29:47.312Z,150.86
2023-06-17T08:30:47.342Z,150.68
2023-06-17T08:31:47.363Z,153.03
2023-06-17T08:32:47.425Z,152.70
2023-06-17T08:33:47.470Z,153.10
2023-06-17T08:34:47.487Z,150.45
2023-06-17T08:35:47.526Z,151.97
2023-06-17T08:36:46.613Z,151.81
2023-06-17T08:37:46.605Z,147.58
2023-06-17T08:38:46.649Z,147.95
2023-06-17T08:39:47.668Z,151.30
2023-06-17T08:40:47.703Z,147.04
2023-06-17T08:41:47.740Z,149.74
2023-06-17T08:42:46.836Z,151.04
2023-06-17T08:43:47.841Z,145.46
2023-06-17T08:44:46.851Z,145.12
2023-06-17T08:45:47.934Z,154.47
2023-06-17T08:46:47.933Z,147.15
2023-06-17T08:47:47.075Z,146.24
2023-06-17T08:48:48.004Z,145.89
2023-06-17T08:49:48.044Z,151.69
2023-06-17T08:50:48.089Z,152.30
2023-06-17T08:51:48.106Z,149.28
2023-06-17T08:52:48.149Z,149.35
2023-06-17T08:53:48.201Z,151.28
2023-06-17T08:54:48.223Z,144.07
2023-06-17T08:55:48.267Z,152.12
2023-06-17T08:56:48.315Z,145.58
2023-06-17T08:57:48.348Z,147.59
2023-06-17T08:58:48.413Z,149.66
2023-06-17T08:59:47.427Z,147.49
2023-06-17T09:00:48.504Z,147.86
2023-06-17T09:01:48.502Z,145.88
2023-06-17T09:02:48.595Z,150.82
2023-06-17T09:03:47.588Z,145.81
2023-06-17T09:04:48.665Z,146.54
2023-06-17T09:05:48.659Z,149.10
2023-06-17T09:06:47.693Z,151.18
2023-06-17T09:07:48.743Z,145.72
2023-06-17T09:08:48.774Z,146.67
2023-06-17T09:09:48.812Z,149.07
2023-06-17T09:10:48.837Z,154.36
2023-06-17T09:11:49.859Z,148.31
2023-06-17T09:12:48.894Z,148.53
2023-06-17T09:13:48.875Z,148.36
2023-06-17T09:14:48.879Z,149.38
2023-06-17T09:15:47.847Z,150.47
2023-06-17T09:16:48.859Z,146.14
2023-06-17T09:17:49.001Z,148.15
2023-06-17T09:18:48.833Z,146.37
2023-06-17T09:19:48.811Z,148.34
2023-06-17T09:20:47.808Z,149.01
2023-06-17T09:21:48.846Z,146.64
2023-06-17T09:22:47.804Z,149.36
2023-06-17T09:23:48.891Z,150.36
2023-06-17T09:24:48.792Z,155.16
2023-06-17T09:25:48.787Z,146.57
2023-06-17T09:26:48.771Z,148.04
2023-06-17T09:28:05.399Z,147.66
2023-06-17T09:28:48.755Z,148.04
2023-06-17T09:29:47.740Z,149.10
2023-06-17T09:30:48.763Z,149.43
2023-06-17T09:31:48.724Z,150.21
2023-06-17T09:32:48.761Z,151.41
2023-06-17T09:33:48.725Z,151.03
2023-06-17T09:34:48.715Z,148.62
2023-06-17T09:35:48.761Z,150.90
2023-06-17T09:36:48.705Z,145.78
2023-06-17T09:38:02.679Z,154.41
2023-06-17T09:38:48.702Z,154.46
2023-06-17T09:39:48.687Z,154.76
2023-06-17T09:40:47.685Z,153.87
2023-06-17T09:41:48.662Z,150.59
2023-06-17T09:42:48.654Z,151.03
2023-06-17T09:43:47.658Z,146.40
2023-06-17T09:44:48.648Z,153.61
2023-06-17T09:45:48.666Z,154.69
2023-06-17T09:46:48.681Z,150.10
2023-06-17T09:47:48.666Z,151.38
2023-06-17T09:48:48.616Z,153.79
2023-06-17T09:49:48.603Z,144.87
2023-06-17T09:50:47.618Z,140.63
2023-06-17T09:51:47.604Z,148.08
2023-06-17T09:52:48.616Z,143.53
2023-06-17T09:53:48.611Z,145.43
2023-06-17T09:54:48.582Z,148.04
2023-06-17T09:55:48.558Z,150.31
2023-06-17T09:56:48.567Z,153.26
2023-06-17T09:57:48.553Z,148.63
2023-06-17T09:58:47.555Z,150.03
2023-06-17T09:59:48.555Z,150.91
2023-06-17T10:00:47.543Z,147.83
2023-06-17T10:01:48.604Z,145.07
2023-06-17T10:02:48.623Z,152.48
2023-06-17T10:03:48.586Z,148.17
2023-06-17T10:04:48.502Z,146.15
2023-06-17T10:05:48.488Z,147.13
2023-06-17T10:06:48.507Z,149.08
2023-06-17T10:07:48.476Z,147.86
2023-06-17T10:08:47.480Z,148.91
2023-06-17T10:09:48.458Z,149.44
2023-06-17T10:10:48.480Z,146.09
2023-06-17T10:11:47.452Z,149.54
2023-06-17T10:12:48.456Z,146.45
2023-06-17T10:13:48.444Z,141.20
2023-06-17T10:14:48.440Z,147.66
2023-06-17T10:15:48.480Z,148.22
2023-06-17T10:16:48.492Z,145.40
2023-06-17T10:17:48.571Z,145.58
2023-06-17T10:18:48.601Z,149.82
2023-06-17T10:19:47.618Z,146.76
2023-06-17T10:20:48.651Z,144.28
2023-06-17T10:21:48.727Z,143.79
2023-06-17T10:22:48.720Z,139.86
2023-06-17T10:23:48.841Z,143.08
2023-06-17T10:24:48.809Z,152.31
2023-06-17T10:25:48.838Z,144.18
2023-06-17T10:26:51.014Z,152.62
2023-06-17T10:27:48.882Z,154.96
2023-06-17T10:28:48.850Z,150.07
2023-06-17T10:29:48.854Z,152.37
2023-06-17T10:30:48.837Z,146.29
2023-06-17T10:31:48.844Z,140.27
2023-06-17T10:32:50.968Z,146.64
2023-06-17T10:33:48.822Z,146.83
2023-06-17T10:34:48.831Z,147.51
2023-06-17T10:35:48.814Z,145.94
2023-06-17T10:36:48.797Z,146.55
2023-06-17T10:37:48.796Z,148.16
2023-06-17T10:38:50.530Z,144.98
2023-06-17T10:39:48.764Z,148.69
2023-06-17T10:40:48.832Z,147.64
2023-06-17T10:41:48.753Z,151.48
2023-06-17T10:42:48.757Z,150.54
2023-06-17T10:43:48.768Z,144.64
2023-06-17T10:44:50.164Z,143.01
2023-06-17T10:45:48.764Z,143.31
2023-06-17T10:46:48.722Z,145.23
2023-06-17T10:47:48.732Z,144.40
2023-06-17T10:48:48.733Z,146.77
2023-06-17T10:49:48.716Z,145.96
2023-06-17T10:50:51.107Z,147.88
2023-06-17T10:52:47.675Z,148.20
2023-06-17T10:53:48.711Z,148.23
2023-06-17T10:54:48.672Z,149.00
2023-06-17T10:55:48.664Z,147.46
2023-06-17T10:56:48.650Z,152.13
2023-06-17T10:57:48.653Z,141.73
2023-06-17T10:58:48.661Z,145.54
2023-06-17T10:59:48.641Z,147.83
2023-06-17T11:00:48.628Z,141.11
2023-06-17T11:01:49.910Z,143.95
2023-06-17T11:02:48.750Z,143.69
2023-06-17T11:03:48.687Z,145.51
2023-06-17T11:04:48.611Z,144.48
2023-06-17T11:05:48.627Z,147.33
2023-06-17T11:06:48.702Z,140.36
2023-06-17T11:07:48.713Z,150.16
2023-06-17T11:08:47.740Z,139.90
2023-06-17T11:09:47.888Z,143.26
2023-06-17T11:10:48.849Z,139.18
2023-06-17T11:11:47.888Z,136.86
2023-06-17T11:12:49.748Z,145.23
2023-06-17T11:13:48.868Z,145.74
2023-06-17T11:14:47.872Z,148.44
2023-06-17T11:15:48.843Z,143.27
2023-06-17T11:16:47.888Z,147.17
2023-06-17T11:17:47.867Z,142.98
2023-06-17T11:18:50.121Z,141.95
2023-06-17T11:19:48.834Z,142.12
2023-06-17T11:20:48.851Z,143.03
2023-06-17T11:21:47.804Z,144.99
2023-06-17T11:22:48.841Z,142.74
2023-06-17T11:23:48.841Z,141.26
2023-06-17T11:24:48.806Z,144.37
2023-06-17T11:25:48.897Z,146.82
2023-06-17T11:26:47.786Z,138.96
2023-06-17T11:27:48.759Z,142.27
2023-06-17T11:28:48.758Z,139.33
2023-06-17T11:29:48.763Z,140.11
2023-06-17T11:30:48.773Z,144.15
2023-06-17T11:31:48.765Z,145.04
2023-06-17T11:32:48.804Z,142.08
2023-06-17T11:33:48.738Z,138.87
2023-06-17T11:34:47.739Z,142.80
2023-06-17T11:35:48.716Z,138.91
2023-06-17T11:36:48.714Z,146.29
2023-06-17T11:37:48.712Z,138.58
2023-06-17T11:38:48.725Z,146.66
2023-06-17T11:39:48.740Z,145.73
2023-06-17T11:40:47.681Z,143.98
2023-06-17T11:41:48.677Z,139.82
2023-06-17T11:42:48.667Z,141.71
2023-06-17T11:43:48.653Z,146.48
2023-06-17T11:44:47.676Z,139.57
2023-06-17T11:45:48.649Z,145.40
2023-06-17T11:46:48.660Z,145.60
2023-06-17T11:47:48.669Z,135.15
2023-06-17T11:48:48.621Z,148.26
2023-06-17T11:49:47.614Z,138.96
2023-06-17T11:50:48.611Z,142.79
2023-06-17T11:51:48.605Z,141.73
2023-06-17T11:52:47.594Z,138.94
2023-06-17T11:53:48.586Z,144.79
2023-06-17T11:54:48.634Z,143.18
2023-06-17T11:55:48.570Z,145.09
2023-06-17T11:56:48.603Z,136.25
2023-06-17T11:57:48.647Z,146.33
2023-06-17T11:58:48.689Z,140.42
2023-06-17T11:59:48.725Z,146.97
2023-06-17T12:00:47.736Z,144.68
2023-06-17T12:01:48.812Z,147.24
2023-06-17T12:02:48.939Z,138.10
2023-06-17T12:03:47.922Z,143.43
2023-06-17T12:04:48.939Z,137.54
2023-06-17T12:05:47.937Z,142.54
2023-06-17T12:06:48.969Z,143.29
2023-06-17T12:07:48.002Z,138.26
2023-06-17T12:08:49.033Z,143.87
2023-06-17T12:09:49.068Z,138.60
2023-06-17T12:10:49.129Z,135.70
2023-06-17T12:11:49.132Z,141.10
2023-06-17T12:12:48.166Z,137.70
2023-06-17T12:13:48.208Z,140.14
2023-06-17T12:14:49.246Z,140.50
2023-06-17T12:15:49.254Z,140.92
2023-06-17T12:16:49.289Z,140.45
2023-06-17T12:17:49.384Z,140.50
2023-06-17T12:18:49.365Z,142.56
2023-06-17T12:19:49.423Z,144.00
2023-06-17T12:20:49.447Z,138.55
2023-06-17T12:21:49.446Z,139.22
2023-06-17T12:22:49.494Z,138.70
2023-06-17T12:23:48.508Z,132.95
2023-06-17T12:24:49.541Z,135.96
2023-06-17T12:25:49.577Z,134.87
2023-06-17T12:26:49.634Z,137.87
2023-06-17T12:27:49.660Z,137.73
2023-06-17T12:28:49.688Z,139.34
2023-06-17T12:29:48.717Z,134.90